Time;durP1;ratioP1;P1;durP2;ratioP2;P2;SDS_P1;SDS_P2;PMS_P1;PMS_P2;Temp;Humidity;BMP_temperature;BMP_pressure;BME280_temperature;BME280_humidity;BME280_pressure;Samples;Min_cycle;Max_cycle;Signal;HPM_P1;HPM_P2
2021/12/13 00:00:33;;;;;;;169.43;59.47;;;;;;;9.18;100.00;101923.56;5049768;28;20436;-84
2021/12/13 00:03:03;;;;;;;177.32;69.18;;;;;;;9.15;100.00;101923.78;5033114;28;20451;-84
2021/12/13 00:05:49;;;;;;;160.02;57.05;;;;;;;9.16;100.00;101923.66;5047492;28;20729;-84
2021/12/13 00:08:20;;;;;;;157.02;58.00;;;;;;;9.14;100.00;101920.25;5044580;28;20036;-84
2021/12/13 00:11:11;;;;;;;161.48;58.72;;;;;;;9.15;100.00;101923.78;5050383;28;20037;-84
2021/12/13 00:13:48;;;;;;;166.13;63.03;;;;;;;9.12;100.00;101922.22;5050151;28;20077;-84
2021/12/13 00:16:25;;;;;;;143.73;47.00;;;;;;;9.16;100.00;101930.84;5046657;28;20040;-85
2021/12/13 00:18:56;;;;;;;135.77;50.95;;;;;;;9.15;100.00;101924.66;5050518;28;20068;-85
2021/12/13 00:21:30;;;;;;;140.18;53.67;;;;;;;9.14;100.00;101922.94;5050553;28;20041;-85
2021/12/13 00:24:04;;;;;;;133.45;54.25;;;;;;;9.14;100.00;101917.56;5048511;28;20037;-84
2021/12/13 00:26:43;;;;;;;133.98;53.72;;;;;;;9.15;100.00;101923.78;5019193;28;20397;-84
2021/12/13 00:29:16;;;;;;;139.95;53.55;;;;;;;9.14;100.00;101917.56;5027674;28;20141;-84
2021/12/13 00:31:55;;;;;;;144.43;57.08;;;;;;;9.13;100.00;101917.72;5017847;28;20053;-84
2021/12/13 00:34:26;;;;;;;137.48;56.28;;;;;;;9.13;100.00;101923.91;5019906;28;20094;-84
2021/12/13 00:37:00;;;;;;;145.10;52.53;;;;;;;9.16;100.00;101923.66;5048412;28;20037;-84
2021/12/13 00:39:30;;;;;;;139.32;56.80;;;;;;;9.13;100.00;101915.88;5048802;28;20120;-85
2021/12/13 00:41:57;;;;;;;146.13;53.40;;;;;;;9.14;100.00;101920.25;5032055;28;20045;-84
2021/12/13 00:44:26;;;;;;;139.77;54.20;;;;;;;9.13;100.00;101918.56;5034979;28;20091;-84
2021/12/13 00:46:56;;;;;;;138.38;48.00;;;;;;;9.15;100.00;101919.28;5037842;28;20451;-84
2021/12/13 00:49:24;;;;;;;;;;;;;;;9.14;100.00;101922.09;5028239;28;20040;-85
2021/12/13 00:51:52;;;;;;;156.18;61.30;;;;;;;9.04;100.00;101922.84;5054218;28;19920;-84
2021/12/13 00:54:39;;;;;;;145.13;56.20;;;;;;;9.08;100.00;101926.13;5026964;28;20041;-85
2021/12/13 00:57:29;;;;;;;148.50;52.90;;;;;;;9.07;100.00;101929.78;5039992;28;20047;-84
2021/12/13 01:00:06;;;;;;;135.10;53.58;;;;;;;9.12;100.00;101932.06;5037147;28;20041;-84
2021/12/13 01:02:58;;;;;;;130.38;52.35;;;;;;;9.09;100.00;101935.88;5048027;28;20041;-84
2021/12/13 01:05:54;;;;;;;138.05;52.08;;;;;;;9.09;100.00;101938.56;5040559;28;20059;-84
2021/12/13 01:09:18;;;;;;;134.45;49.78;;;;;;;9.13;100.00;101945.34;5040349;28;20037;-84
2021/12/13 01:11:43;;;;;;;127.95;45.47;;;;;;;9.08;100.00;101944.88;5004546;28;20047;-84
2021/12/13 01:14:44;;;;;;;126.80;52.45;;;;;;;9.11;100.00;101935.72;5049590;28;20041;-84
2021/12/13 01:20:28;;;;;;;125.50;52.95;;;;;;;9.11;100.00;101941.09;5037813;28;20037;-85
2021/12/13 01:23:01;;;;;;;119.82;48.60;;;;;;;9.09;100.00;101943.03;5048901;28;20032;-84
2021/12/13 01:26:13;;;;;;;124.95;46.65;;;;;;;9.13;100.00;101948.03;5031975;28;20045;-84
2021/12/13 01:28:57;;;;;;;109.97;43.15;;;;;;;9.11;100.00;101949.97;5050123;28;20075;-84
2021/12/13 01:31:28;;;;;;;106.30;41.13;;;;;;;9.11;100.00;101963.34;5038877;28;20123;-84
2021/12/13 01:33:54;;;;;;;113.32;50.15;;;;;;;9.14;100.00;101962.25;5026976;28;20068;-84
2021/12/13 01:36:26;;;;;;;117.20;50.88;;;;;;;9.11;100.00;101960.69;5047103;28;20468;-84
2021/12/13 01:39:07;;;;;;;115.75;47.08;;;;;;;9.14;100.00;101970.28;5032140;28;20083;-84
2021/12/13 01:41:40;;;;;;;97.07;39.00;;;;;;;9.13;100.00;101963.25;5041467;28;20053;-84
2021/12/13 01:44:14;;;;;;;100.05;43.72;;;;;;;9.13;100.00;101965.91;5030839;28;20041;-84
2021/12/13 01:46:47;;;;;;;90.57;36.22;;;;;;;9.14;100.00;101973.81;5029844;28;20049;-84
2021/12/13 01:49:14;;;;;;;94.93;38.38;;;;;;;9.14;100.00;101973.81;5047753;28;20052;-84
2021/12/13 01:51:42;;;;;;;83.70;32.58;;;;;;;9.17;100.00;101959.31;5048952;28;20041;-84
2021/12/13 01:54:20;;;;;;;93.93;37.58;;;;;;;9.16;100.00;101977.22;5028859;28;20033;-85
2021/12/13 01:58:08;;;;;;;82.38;38.80;;;;;;;9.16;100.00;101984.41;5048752;28;20475;-84
2021/12/13 02:00:08;;;;;;;81.82;36.75;;;;;;;9.16;100.00;101982.59;5022379;28;20112;-85
2021/12/13 02:02:36;;;;;;;77.65;33.35;;;;;;;9.18;100.00;101982.47;5047030;28;20046;-84
2021/12/13 02:05:23;;;;;;;75.68;29.48;;;;;;;9.17;100.00;101980.75;5030530;28;20053;-84
2021/12/13 02:07:54;;;;;;;87.85;38.13;;;;;;;9.15;100.00;101974.66;5042517;28;20049;-84
2021/12/13 02:10:23;;;;;;;81.55;34.88;;;;;;;9.17;100.00;101978.06;5045745;28;20687;-85
2021/12/13 02:13:00;;;;;;;91.32;43.17;;;;;;;9.15;100.00;101990.72;5049742;28;20764;-85
2021/12/13 02:18:27;;;;;;;82.65;34.88;;;;;;;9.14;100.00;101986.34;5032201;28;20048;-84
2021/12/13 02:21:11;;;;;;;84.32;40.67;;;;;;;9.14;100.00;101987.19;5028826;28;20178;-85
2021/12/13 02:23:44;;;;;;;77.22;34.22;;;;;;;9.13;100.00;101985.50;5026102;28;20076;-84
2021/12/13 02:26:10;;;;;;;86.80;37.10;;;;;;;9.12;100.00;101983.81;5030960;28;20052;-84
2021/12/13 02:28:41;;;;;;;94.50;40.13;;;;;;;9.12;100.00;101991.84;5048031;28;20040;-85
2021/12/13 02:31:14;;;;;;;93.00;40.50;;;;;;;9.12;100.00;101991.84;5035931;28;20036;-84
2021/12/13 02:33:44;;;;;;;93.57;43.30;;;;;;;9.12;100.00;101994.53;5043202;28;20370;-84
2021/12/13 02:36:14;;;;;;;87.45;37.58;;;;;;;9.14;100.00;101997.06;5028988;28;20032;-85
2021/12/13 02:38:42;;;;;;;90.28;37.80;;;;;;;9.13;100.00;101990.88;5026578;28;20052;-84
2021/12/13 02:41:09;;;;;;;93.55;41.80;;;;;;;9.12;100.00;101999.88;5027336;28;20040;-84
2021/12/13 02:43:41;;;;;;;99.05;44.20;;;;;;;9.10;100.00;101996.47;5047005;28;20061;-85
2021/12/13 02:46:13;;;;;;;100.45;43.83;;;;;;;9.09;100.00;101996.59;5045710;28;20037;-84
2021/12/13 02:49:01;;;;;;;111.07;47.17;;;;;;;9.07;100.00;102004.75;5042925;28;20485;-84
2021/12/13 02:51:29;;;;;;;103.23;42.67;;;;;;;9.07;100.00;102002.09;5042762;28;20072;-84
2021/12/13 02:54:02;;;;;;;103.27;44.03;;;;;;;9.04;100.00;101992.47;5047908;28;20036;-85
2021/12/13 02:56:38;;;;;;;106.75;46.20;;;;;;;9.03;100.00;101998.81;5047708;28;20291;-85
2021/12/13 02:59:10;;;;;;;106.63;49.25;;;;;;;9.03;100.00;102000.63;5045688;28;20044;-85
2021/12/13 03:01:41;;;;;;;103.22;46.08;;;;;;;9.03;100.00;101989.91;5047821;28;20049;-84
2021/12/13 03:04:12;;;;;;;101.20;47.65;;;;;;;9.03;100.00;101996.13;5026244;28;20120;-85
2021/12/13 03:06:46;;;;;;;108.45;46.33;;;;;;;9.02;100.00;101990.88;5047923;28;20048;-85
2021/12/13 03:09:23;;;;;;;106.40;46.75;;;;;;;9.02;100.00;102001.59;5030313;28;20049;-84
2021/12/13 03:11:51;;;;;;;103.32;43.05;;;;;;;9.02;100.00;101999.78;5043067;28;20075;-84
2021/12/13 03:14:33;;;;;;;106.07;46.33;;;;;;;9.01;100.00;102007.94;5028688;28;20064;-84
2021/12/13 03:17:05;;;;;;;110.53;50.97;;;;;;;8.96;100.00;102008.31;5051278;28;20040;-84
2021/12/13 03:19:40;;;;;;;114.22;50.22;;;;;;;8.94;100.00;102012.06;5055334;28;20041;-84
2021/12/13 03:22:44;;;;;;;103.57;46.90;;;;;;;8.94;100.00;102012.06;5051693;28;20136;-84
2021/12/13 03:25:18;;;;;;;114.03;48.95;;;;;;;8.90;100.00;102010.63;5039979;28;20041;-84
2021/12/13 03:28:13;;;;;;;107.25;45.15;;;;;;;8.89;100.00;102012.47;5014637;28;20041;-84
2021/12/13 03:31:04;;;;;;;118.03;53.10;;;;;;;8.86;100.00;102012.72;5030494;28;20128;-84
2021/12/13 03:33:47;;;;;;;121.22;54.78;;;;;;;8.84;100.00;102009.31;5030944;28;20068;-84
2021/12/13 03:36:17;;;;;;;118.43;54.38;;;;;;;8.81;100.00;102012.22;5031095;28;20041;-84
2021/12/13 03:38:54;;;;;;;114.47;50.03;;;;;;;8.85;100.00;102012.81;5030204;28;20037;-84
2021/12/13 03:41:24;;;;;;;131.68;58.72;;;;;;;8.82;100.00;102012.09;5031149;28;20045;-85
2021/12/13 03:44:03;;;;;;;132.75;63.60;;;;;;;8.82;100.00;102020.13;5015585;28;20033;-84
2021/12/13 03:46:33;;;;;;;133.38;59.67;;;;;;;8.80;100.00;102021.22;5026944;28;20391;-84
2021/12/13 03:49:03;;;;;;;129.13;58.75;;;;;;;8.81;100.00;102012.22;5048640;28;20080;-84
2021/12/13 03:51:34;;;;;;;127.07;60.15;;;;;;;8.80;100.00;102016.72;5025332;28;20929;-84
2021/12/13 03:54:04;;;;;;;131.18;55.60;;;;;;;8.80;100.00;102019.41;5026691;28;20103;-84
2021/12/13 03:56:37;;;;;;;135.85;58.33;;;;;;;8.79;100.00;102015.00;5029836;28;20553;-84
2021/12/13 03:59:12;;;;;;;128.70;57.30;;;;;;;8.77;100.00;102018.78;5030847;28;20049;-84
2021/12/13 04:02:01;;;;;;;133.82;65.95;;;;;;;8.75;100.00;102018.91;5029445;28;20103;-84
2021/12/13 04:04:41;;;;;;;127.53;58.85;;;;;;;8.75;100.00;102013.56;5029432;28;20046;-84
2021/12/13 04:07:14;;;;;;;115.13;54.85;;;;;;;8.76;100.00;102014.41;5030282;28;20037;-84
2021/12/13 04:09:46;;;;;;;113.20;52.40;;;;;;;8.76;100.00;102003.72;5026141;28;20052;-84
2021/12/13 04:12:14;;;;;;;110.20;54.58;;;;;;;8.75;100.00;102018.91;5024675;28;20044;-84
2021/12/13 04:14:52;;;;;;;109.17;55.60;;;;;;;8.72;100.00;102018.31;5030986;28;20041;-84
2021/12/13 04:18:12;;;;;;;105.50;51.30;;;;;;;8.71;100.00;102019.28;5044650;28;20333;-84
2021/12/13 04:20:35;;;;;;;101.70;47.78;;;;;;;8.69;100.00;102023.88;5022494;28;20034;-85
2021/12/13 04:23:18;;;;;;;99.45;48.22;;;;;;;8.69;100.00;102027.44;5027358;28;20049;-84
2021/12/13 04:25:48;;;;;;;100.13;49.85;;;;;;;8.68;100.00;102022.19;5006980;28;20397;-84
2021/12/13 04:28:33;;;;;;;99.97;46.78;;;;;;;8.68;100.00;102023.03;5007279;28;20083;-84
2021/12/13 04:31:05;;;;;;;97.68;51.22;;;;;;;8.66;100.00;102019.66;5043735;28;20041;-84
2021/12/13 04:33:58;;;;;;;90.97;46.75;;;;;;;8.66;100.00;102027.69;5029061;28;20398;-85
2021/12/13 04:36:34;;;;;;;90.47;43.92;;;;;;;8.65;100.00;102028.63;5028960;28;20529;-84
2021/12/13 04:39:11;;;;;;;96.10;46.03;;;;;;;8.63;100.00;102035.97;5025868;28;20041;-85
2021/12/13 04:41:39;;;;;;;97.85;48.67;;;;;;;8.60;100.00;102030.81;5031647;28;20045;-85
2021/12/13 04:44:09;;;;;;;89.93;47.87;;;;;;;8.58;100.00;102032.78;5006692;28;20077;-84
2021/12/13 04:46:40;;;;;;;92.57;44.30;;;;;;;8.58;100.00;102030.13;5015885;28;20099;-84
2021/12/13 04:49:18;;;;;;;91.70;49.08;;;;;;;8.58;100.00;102043.50;5008672;28;20091;-84
2021/12/13 04:51:56;;;;;;;89.47;47.53;;;;;;;8.56;100.00;102043.59;5032431;28;20045;-84
2021/12/13 04:54:24;;;;;;;98.88;51.05;;;;;;;8.54;100.00;102040.19;5027714;28;20034;-85
2021/12/13 04:56:52;;;;;;;88.72;40.88;;;;;;;8.52;100.00;102039.47;5027772;28;20049;-84
2021/12/13 04:59:18;;;;;;;87.63;50.80;;;;;;;8.52;100.00;102030.59;5030924;28;20482;-84
2021/12/13 05:01:47;;;;;;;94.40;49.28;;;;;;;8.51;100.00;102032.41;5030102;28;20045;-84
2021/12/13 05:04:14;;;;;;;89.05;45.92;;;;;;;8.51;100.00;102042.25;5022726;28;20087;-84
2021/12/13 05:06:41;;;;;;;90.80;45.35;;;;;;;8.49;100.00;102038.88;5026480;28;20649;-84
2021/12/13 05:09:15;;;;;;;99.65;53.15;;;;;;;8.48;100.00;102039.81;5028625;28;20111;-85
2021/12/13 05:11:55;;;;;;;93.13;47.15;;;;;;;8.47;100.00;102032.78;5022785;28;20532;-84
2021/12/13 05:14:32;;;;;;;96.57;47.00;;;;;;;8.45;100.00;102030.22;5027639;28;20049;-84
2021/12/13 05:17:14;;;;;;;95.43;49.65;;;;;;;8.46;100.00;102033.72;5026055;28;20065;-85
2021/12/13 05:19:48;;;;;;;91.57;48.78;;;;;;;8.43;100.00;102031.28;5032004;28;20052;-85
2021/12/13 05:22:21;;;;;;;88.68;42.08;;;;;;;8.43;100.00;102029.50;5018033;28;20107;-88
2021/12/13 05:25:04;;;;;;;89.97;48.00;;;;;;;8.42;100.00;102032.28;5012335;28;20457;-86
2021/12/13 05:27:35;;;;;;;89.90;45.92;;;;;;;8.40;100.00;102031.53;5025008;28;20041;-86
2021/12/13 05:30:14;;;;;;;90.45;48.40;;;;;;;8.40;100.00;102034.22;5027194;28;20048;-86
2021/12/13 05:32:48;;;;;;;89.78;47.92;;;;;;;8.38;100.00;102030.78;5025829;28;20076;-85
2021/12/13 05:35:32;;;;;;;87.93;42.00;;;;;;;8.38;100.00;102028.97;5025308;28;20591;-86
2021/12/13 05:38:03;;;;;;;82.80;44.60;;;;;;;8.35;100.00;102030.06;5026558;28;20445;-86
2021/12/13 05:40:42;;;;;;;90.03;44.90;;;;;;;8.35;100.00;102032.72;5039033;28;20040;-85
2021/12/13 05:43:20;;;;;;;83.75;43.15;;;;;;;8.34;100.00;102039.06;5006114;28;20043;-86
2021/12/13 05:45:49;;;;;;;78.85;44.55;;;;;;;8.32;100.00;102035.66;5041892;28;20052;-86
2021/12/13 05:48:43;;;;;;;77.85;40.47;;;;;;;8.32;100.00;102042.81;5042340;28;20051;-86
2021/12/13 05:51:21;;;;;;;73.45;33.47;;;;;;;8.29;100.00;102043.91;5004690;28;20034;-86
2021/12/13 05:53:55;;;;;;;72.63;36.47;;;;;;;8.27;100.00;102039.66;5023946;28;20045;-86
2021/12/13 05:56:21;;;;;;;68.03;35.03;;;;;;;8.27;100.00;102040.50;5039941;28;20306;-85
2021/12/13 05:58:54;;;;;;;74.47;40.53;;;;;;;8.26;100.00;102044.16;5011730;28;20412;-85
2021/12/13 06:01:51;;;;;;;73.72;38.70;;;;;;;8.28;100.00;102052.03;5016629;28;20383;-86
2021/12/13 06:04:32;;;;;;;75.13;32.88;;;;;;;8.24;100.00;102050.59;5017270;28;20346;-86
2021/12/13 06:06:58;;;;;;;69.70;35.58;;;;;;;8.23;100.00;102049.75;5020939;28;20037;-85
2021/12/13 06:09:44;;;;;;;68.88;36.47;;;;;;;8.25;100.00;102045.09;5003222;28;20041;-86
2021/12/13 06:12:14;;;;;;;65.70;34.35;;;;;;;8.25;100.00;102052.28;5024376;28;20428;-86
2021/12/13 06:14:40;;;;;;;66.68;37.30;;;;;;;8.23;100.00;102048.84;5039507;28;20072;-85
2021/12/13 06:17:37;;;;;;;65.20;31.52;;;;;;;8.25;100.00;102060.28;5006078;28;20069;-86
2021/12/13 06:20:14;;;;;;;67.95;33.50;;;;;;;8.22;100.00;102064.06;5008120;28;20456;-85
2021/12/13 06:22:39;;;;;;;69.13;38.05;;;;;;;8.21;100.00;102072.22;5025909;28;22968;-86
2021/12/13 06:25:14;;;;;;;64.65;35.00;;;;;;;8.22;100.00;102056.03;5025504;28;20051;-85
2021/12/13 06:27:48;;;;;;;65.40;36.67;;;;;;;8.22;100.00;102058.72;5024504;28;20370;-86
2021/12/13 06:30:16;;;;;;;65.03;32.33;;;;;;;8.22;100.00;102060.53;5026584;28;20052;-86
2021/12/13 06:32:48;;;;;;;64.47;34.63;;;;;;;8.23;100.00;102060.44;5017293;28;20050;-86
2021/12/13 06:35:32;;;;;;;61.47;32.05;;;;;;;8.21;100.00;102062.38;5022061;28;20856;-86
2021/12/13 06:38:20;;;;;;;58.50;30.73;;;;;;;8.20;100.00;102067.81;5024435;28;20049;-86
2021/12/13 06:40:50;;;;;;;60.00;35.83;;;;;;;8.20;100.00;102070.50;5018646;28;20046;-86
2021/12/13 06:43:38;;;;;;;61.55;34.65;;;;;;;8.19;100.00;102074.16;5021298;28;20417;-85
2021/12/13 06:46:12;;;;;;;57.38;31.88;;;;;;;8.16;100.00;102067.22;5025422;28;20069;-85
2021/12/13 06:48:43;;;;;;;62.08;35.80;;;;;;;8.14;100.00;102056.66;5024762;28;20075;-86
2021/12/13 06:51:19;;;;;;;64.68;33.53;;;;;;;8.16;100.00;102067.22;5028601;28;20048;-87
2021/12/13 06:54:05;;;;;;;61.47;36.10;;;;;;;8.15;100.00;102070.84;5004987;28;20049;-86
2021/12/13 06:56:33;;;;;;;60.65;32.80;;;;;;;8.14;100.00;102077.16;5021406;28;20046;-86
2021/12/13 06:59:02;;;;;;;61.15;34.30;;;;;;;8.14;100.00;102071.81;5029049;28;20042;-86
2021/12/13 07:01:34;;;;;;;56.20;28.08;;;;;;;8.12;100.00;102069.28;5022948;28;20387;-86
2021/12/13 07:04:06;;;;;;;52.65;29.65;;;;;;;8.13;100.00;102075.47;5027416;28;20041;-86
2021/12/13 07:06:33;;;;;;;56.30;29.65;;;;;;;8.11;100.00;102080.06;5042483;28;20041;-86
2021/12/13 07:09:28;;;;;;;57.92;30.90;;;;;;;8.13;100.00;102083.47;5021557;28;20052;-86
2021/12/13 07:11:57;;;;;;;50.67;27.60;;;;;;;8.10;100.00;102087.25;5039809;28;20160;-86
2021/12/13 07:14:38;;;;;;;48.45;27.92;;;;;;;8.09;100.00;102090.03;5026706;28;20030;-86
2021/12/13 07:17:30;;;;;;;51.85;28.65;;;;;;;8.08;100.00;102088.31;5026621;28;20049;-87
2021/12/13 07:19:56;;;;;;;49.25;27.75;;;;;;;8.07;100.00;102100.84;5031807;28;20505;-87
2021/12/13 07:22:25;;;;;;;50.88;27.65;;;;;;;8.06;100.00;102099.16;5048188;28;20076;-86
2021/12/13 07:25:01;;;;;;;51.90;29.13;;;;;;;8.07;100.00;102108.88;5030462;28;20056;-86
2021/12/13 07:27:33;;;;;;;48.08;28.25;;;;;;;8.06;100.00;102100.97;5047168;28;20485;-86
2021/12/13 07:30:21;;;;;;;48.08;27.15;;;;;;;8.05;100.00;102110.78;5046371;28;20045;-86
2021/12/13 07:32:52;;;;;;;48.08;30.13;;;;;;;8.04;100.00;102109.09;5045477;28;20049;-86
2021/12/13 07:35:33;;;;;;;52.70;29.42;;;;;;;8.04;100.00;102109.09;5032912;28;20592;-85
2021/12/13 07:38:11;;;;;;;51.08;29.10;;;;;;;8.03;100.00;102111.91;5043546;28;20060;-86
2021/12/13 07:40:49;;;;;;;49.38;28.52;;;;;;;8.02;100.00;102111.03;4993600;28;20052;-86
2021/12/13 07:43:26;;;;;;;45.70;25.97;;;;;;;8.01;100.00;102116.50;5044431;28;20053;-86
2021/12/13 07:45:53;;;;;;;44.63;25.58;;;;;;;8.00;100.00;102112.09;5019970;28;20283;-86
2021/12/13 07:48:32;;;;;;;43.67;24.83;;;;;;;7.99;100.00;102111.25;5048045;28;20048;-86
2021/12/13 07:51:12;;;;;;;44.35;24.33;;;;;;;8.00;100.00;102112.97;5007065;28;20037;-86
2021/12/13 07:53:49;;;;;;;45.15;26.55;;;;;;;8.00;100.00;102114.78;5040987;28;20418;-86
2021/12/13 07:56:38;;;;;;;47.13;24.02;;;;;;;8.02;100.00;102123.53;5025424;28;20033;-86
2021/12/13 07:59:12;;;;;;;42.72;25.58;;;;;;;8.00;100.00;102120.13;4998459;28;20477;-86
2021/12/13 08:02:07;;;;;;;43.90;25.10;;;;;;;8.00;100.00;102133.50;5023221;28;20060;-86
2021/12/13 08:04:51;;;;;;;43.00;27.00;;;;;;;7.98;100.00;102140.78;5045816;28;20098;-86
2021/12/13 08:07:23;;;;;;;41.22;26.33;;;;;;;7.97;100.00;102136.41;5046098;28;20036;-86
2021/12/13 08:09:56;;;;;;;38.53;22.35;;;;;;;7.97;100.00;102139.94;5028931;28;20322;-87
2021/12/13 08:12:29;;;;;;;40.65;23.35;;;;;;;7.97;100.00;102147.97;5045313;28;20041;-87
2021/12/13 08:15:15;;;;;;;42.85;26.92;;;;;;;7.97;100.00;102156.00;5047545;28;20401;-86
2021/12/13 08:17:49;;;;;;;40.92;25.27;;;;;;;7.95;100.00;102149.88;5031579;28;20118;-86
2021/12/13 08:20:20;;;;;;;44.38;25.90;;;;;;;7.96;100.00;102150.75;5027498;28;20124;-86
2021/12/13 08:22:49;;;;;;;41.83;22.77;;;;;;;7.97;100.00;102155.09;5042926;28;20041;-86
2021/12/13 08:25:20;;;;;;;38.28;23.27;;;;;;;7.97;100.00;102160.44;5045714;28;20037;-86
2021/12/13 08:27:56;;;;;;;42.78;26.27;;;;;;;7.97;100.00;102171.16;5029546;28;20041;-87
2021/12/13 08:30:27;;;;;;;41.25;25.30;;;;;;;7.97;100.00;102165.81;5034475;28;20048;-86
2021/12/13 08:33:11;;;;;;;37.90;23.85;;;;;;;7.97;100.00;102171.16;5034369;28;20155;-85
2021/12/13 08:36:01;;;;;;;41.63;24.88;;;;;;;7.97;100.00;102160.44;5025392;28;20070;-86
2021/12/13 08:38:53;;;;;;;42.55;26.17;;;;;;;7.94;100.00;102160.69;5022551;28;20037;-86
2021/12/13 08:41:50;;;;;;;37.03;20.70;;;;;;;7.94;100.00;102161.56;5038834;28;20427;-86
2021/12/13 08:44:36;;;;;;;37.53;20.05;;;;;;;7.94;100.00;102161.56;5024608;28;20061;-85
2021/12/13 08:47:06;;;;;;;37.45;22.98;;;;;;;7.93;100.00;102161.66;5005654;28;20071;-86
2021/12/13 08:49:50;;;;;;;35.25;20.58;;;;;;;7.94;100.00;102160.69;5019149;28;20069;-86
2021/12/13 08:52:15;;;;;;;38.95;23.23;;;;;;;7.94;100.00;102158.00;5024677;28;20214;-86
2021/12/13 08:54:51;;;;;;;37.80;22.48;;;;;;;7.94;100.00;102163.34;5026653;28;20045;-86
2021/12/13 08:57:38;;;;;;;38.85;23.75;;;;;;;7.94;100.00;102169.59;5041453;28;20037;-86
2021/12/13 09:00:30;;;;;;;36.13;21.60;;;;;;;7.94;100.00;102169.59;5038301;28;20538;-86
2021/12/13 09:03:33;;;;;;;34.22;21.35;;;;;;;7.93;100.00;102167.84;4990547;28;20117;-86
2021/12/13 09:06:18;;;;;;;35.05;22.42;;;;;;;7.93;100.00;102170.53;5033201;28;20053;-86
2021/12/13 09:08:45;;;;;;;34.83;21.65;;;;;;;7.94;100.00;102176.72;5021938;28;20116;-86
2021/12/13 09:11:14;;;;;;;34.90;20.80;;;;;;;7.94;100.00;102174.94;5010216;28;20505;-86
2021/12/13 09:14:13;;;;;;;37.75;23.52;;;;;;;7.94;100.00;102176.72;5025576;28;20079;-86
2021/12/13 09:17:16;;;;;;;32.45;18.33;;;;;;;7.94;100.00;102179.41;5020532;28;20042;-86
2021/12/13 09:19:44;;;;;;;39.38;22.48;;;;;;;7.94;100.00;102182.06;5023297;28;20107;-87
2021/12/13 09:22:14;;;;;;;34.13;22.67;;;;;;;7.95;100.00;102181.13;5020029;28;20386;-86
2021/12/13 09:24:48;;;;;;;38.75;20.35;;;;;;;7.95;100.00;102184.66;5026357;28;20041;-86
2021/12/13 09:27:44;;;;;;;33.30;21.90;;;;;;;7.96;100.00;102190.84;5000502;28;20042;-86
2021/12/13 09:30:38;;;;;;;32.55;21.65;;;;;;;7.95;100.00;102199.84;5004786;28;20120;-86
2021/12/13 09:33:29;;;;;;;30.50;18.13;;;;;;;7.92;100.00;102200.91;5014098;28;20688;-86
2021/12/13 09:35:56;;;;;;;29.92;19.92;;;;;;;7.93;100.00;102202.59;5005601;28;20128;-86
2021/12/13 09:38:28;;;;;;;32.67;18.67;;;;;;;7.95;100.00;102205.19;5022193;28;20041;-86
2021/12/13 09:41:17;;;;;;;30.05;19.13;;;;;;;7.95;100.00;102206.03;5025757;28;20056;-85
2021/12/13 09:43:51;;;;;;;30.73;19.52;;;;;;;7.95;100.00;102206.03;5024512;28;20049;-86
2021/12/13 09:46:27;;;;;;;32.55;18.92;;;;;;;7.95;100.00;102203.34;5022247;28;20056;-86
2021/12/13 09:48:58;;;;;;;29.65;20.13;;;;;;;7.96;100.00;102206.88;4998938;28;20046;-86
2021/12/13 09:51:47;;;;;;;32.13;19.90;;;;;;;7.99;100.00;102202.16;4998924;28;20607;-86
2021/12/13 09:54:15;;;;;;;32.42;18.48;;;;;;;7.98;100.00;102207.63;5028614;28;20091;-85
2021/12/13 09:56:49;;;;;;;30.88;19.05;;;;;;;7.99;100.00;102207.50;5011261;28;20444;-86
2021/12/13 09:59:23;;;;;;;29.58;19.73;;;;;;;8.01;100.00;102213.59;5034410;28;20091;-86
2021/12/13 10:01:50;;;;;;;30.77;19.50;;;;;;;8.01;100.00;102215.41;5025524;28;20099;-86
2021/12/13 10:04:30;;;;;;;29.17;18.95;;;;;;;8.02;100.00;102212.63;4987523;28;20038;-86
2021/12/13 10:07:04;;;;;;;28.90;18.40;;;;;;;8.03;100.00;102197.44;5024454;28;20439;-86
2021/12/13 10:09:38;;;;;;;25.67;16.55;;;;;;;8.05;100.00;102212.38;5027660;28;20041;-86
2021/12/13 10:12:20;;;;;;;27.27;16.92;;;;;;;8.07;100.00;102206.94;5027981;28;20056;-86
2021/12/13 10:14:53;;;;;;;26.38;15.95;;;;;;;8.07;100.00;102209.63;5028456;28;20048;-85
2021/12/13 10:17:23;;;;;;;25.60;17.60;;;;;;;8.09;100.00;102210.38;5027486;28;20056;-86
2021/12/13 10:19:53;;;;;;;25.00;16.08;;;;;;;8.10;100.00;102209.38;5013257;28;20056;-86
2021/12/13 10:22:25;;;;;;;24.77;17.73;;;;;;;8.09;100.00;102199.66;5008724;28;20037;-86
2021/12/13 10:24:57;;;;;;;24.20;15.85;;;;;;;8.11;100.00;102200.38;5026923;28;20049;-86
2021/12/13 10:27:23;;;;;;;22.23;16.17;;;;;;;8.11;100.00;102206.59;5010592;28;20095;-86
2021/12/13 10:29:53;;;;;;;24.10;14.80;;;;;;;8.12;100.00;102202.09;5027460;28;20468;-86
2021/12/13 10:32:24;;;;;;;25.30;17.25;;;;;;;8.13;100.00;102201.13;5032033;28;20037;-86
2021/12/13 10:34:53;;;;;;;24.55;14.80;;;;;;;8.12;100.00;102205.63;5019316;28;20124;-86
2021/12/13 10:37:27;;;;;;;25.70;16.30;;;;;;;8.13;100.00;102196.63;5027550;28;20317;-86
2021/12/13 10:39:58;;;;;;;22.77;14.10;;;;;;;8.14;100.00;102202.81;5022158;28;20037;-85
2021/12/13 10:42:35;;;;;;;24.10;14.63;;;;;;;8.14;100.00;102192.13;5027456;28;20481;-86
2021/12/13 10:45:05;;;;;;;21.13;15.00;;;;;;;8.15;100.00;102196.53;5010472;28;20045;-86
2021/12/13 10:47:35;;;;;;;23.40;13.90;;;;;;;8.14;100.00;102184.09;5010095;28;20049;-86
2021/12/13 10:50:04;;;;;;;19.73;13.45;;;;;;;8.14;100.00;102173.41;5033568;28;20414;-86
2021/12/13 10:52:36;;;;;;;21.23;14.35;;;;;;;8.14;100.00;102178.75;5030631;28;20061;-86
2021/12/13 10:55:11;;;;;;;19.50;12.27;;;;;;;8.15;100.00;102177.81;5026772;28;20568;-86
2021/12/13 10:57:43;;;;;;;19.58;13.55;;;;;;;8.16;100.00;102176.00;5026335;28;20389;-86
2021/12/13 11:00:25;;;;;;;19.80;13.43;;;;;;;8.16;100.00;102171.50;5033647;28;20493;-86
2021/12/13 11:02:59;;;;;;;19.95;14.75;;;;;;;8.16;100.00;102176.84;5023230;28;20421;-86
2021/12/13 11:05:28;;;;;;;20.73;11.57;;;;;;;8.16;100.00;102176.84;5031797;28;20041;-85
2021/12/13 11:07:55;;;;;;;17.67;12.80;;;;;;;8.18;100.00;102174.06;5024467;28;20056;-86
2021/12/13 11:10:27;;;;;;;17.33;13.35;;;;;;;8.18;100.00;102180.25;5028221;28;20042;-85
2021/12/13 11:12:56;;;;;;;17.25;11.98;;;;;;;8.19;100.00;102181.09;5009823;28;20049;-86
2021/12/13 11:15:32;;;;;;;16.80;11.60;;;;;;;8.20;100.00;102186.34;5026881;28;20033;-85
2021/12/13 11:18:01;;;;;;;17.88;12.75;;;;;;;8.21;100.00;102179.19;5026883;28;20481;-85
2021/12/13 11:20:33;;;;;;;20.85;12.93;;;;;;;8.23;100.00;102183.44;5020015;28;20053;-85
2021/12/13 11:22:59;;;;;;;18.23;12.85;;;;;;;8.23;100.00;102191.47;5026459;28;20401;-86
2021/12/13 11:25:31;;;;;;;17.38;10.65;;;;;;;8.22;100.00;102183.53;5024446;28;20429;-86
2021/12/13 11:27:57;;;;;;;17.05;10.85;;;;;;;8.24;100.00;102182.47;5011147;28;20033;-86
2021/12/13 11:30:31;;;;;;;17.08;11.93;;;;;;;8.26;100.00;102182.38;5027843;28;20144;-86
2021/12/13 11:32:57;;;;;;;16.70;11.57;;;;;;;8.25;100.00;102169.94;5029402;28;20053;-85
2021/12/13 11:35:59;;;;;;;19.50;12.30;;;;;;;8.26;100.00;102183.22;5030982;28;20529;-85
2021/12/13 11:38:44;;;;;;;16.38;11.57;;;;;;;8.25;100.00;102176.13;5021492;28;20189;-86
2021/12/13 11:41:48;;;;;;;17.75;12.10;;;;;;;8.25;100.00;102181.50;5026379;28;20091;-86
2021/12/13 11:44:32;;;;;;;15.70;10.02;;;;;;;8.25;100.00;102173.47;5027315;28;20209;-86
2021/12/13 11:47:30;;;;;;;16.30;11.82;;;;;;;8.24;100.00;102166.41;5012325;28;20139;-86
2021/12/13 11:50:33;;;;;;;17.45;11.82;;;;;;;8.25;100.00;102170.78;4988469;28;20102;-86
2021/12/13 11:53:18;;;;;;;16.00;11.05;;;;;;;8.24;100.00;102163.75;5038357;28;20129;-86
2021/12/13 11:56:21;;;;;;;15.90;11.45;;;;;;;8.25;100.00;102172.63;5026010;28;20137;-86